Time;durP1;ratioP1;P1;durP2;ratioP2;P2;SDS_P1;SDS_P2;PMS_P1;PMS_P2;Temp;Humidity;BMP_temperature;BMP_pressure;BME280_temperature;BME280_humidity;BME280_pressure;Samples;Min_cycle;Max_cycle;Signal;HPM_P1;HPM_P2
2023/03/18 00:02:04;;;;;;;8.10;4.90;;;12.40;99.90;;;;;;4961015;28;20118;-66
2023/03/18 00:04:30;;;;;;;9.02;4.85;;;12.40;99.90;;;;;;4957196;28;20174;-67
2023/03/18 00:06:56;;;;;;;8.07;4.90;;;12.40;99.90;;;;;;4959728;28;20055;-67
2023/03/18 00:09:22;;;;;;;9.40;4.93;;;12.40;99.90;;;;;;4964071;28;20043;-67
2023/03/18 00:11:48;;;;;;;6.80;5.00;;;12.50;99.90;;;;;;4964563;28;20043;-67
2023/03/18 00:14:14;;;;;;;10.95;5.03;;;12.50;99.90;;;;;;4964449;28;20043;-67
2023/03/18 00:16:40;;;;;;;9.15;5.50;;;12.50;99.90;;;;;;4959995;28;20486;-66
2023/03/18 00:19:06;;;;;;;10.38;6.20;;;12.50;99.90;;;;;;4965185;28;20215;-68
2023/03/18 00:21:32;;;;;;;14.85;6.10;;;12.50;99.90;;;;;;4961980;28;20050;-66
2023/03/18 00:23:59;;;;;;;12.55;6.80;;;12.60;99.90;;;;;;4959457;28;20054;-66
2023/03/18 00:26:26;;;;;;;7.85;5.82;;;12.60;99.90;;;;;;4961286;28;20443;-66
2023/03/18 00:28:54;;;;;;;16.17;6.28;;;12.60;99.90;;;;;;4960794;28;20396;-67
2023/03/18 00:31:20;;;;;;;9.60;6.45;;;12.60;99.90;;;;;;4962512;28;20104;-66
2023/03/18 00:33:49;;;;;;;10.98;6.85;;;12.60;99.90;;;;;;4961737;28;20047;-66
2023/03/18 00:36:17;;;;;;;10.15;6.25;;;12.60;99.90;;;;;;4959813;28;20067;-67
2023/03/18 00:38:45;;;;;;;10.90;6.80;;;12.60;99.90;;;;;;4966405;28;20035;-66
2023/03/18 00:41:15;;;;;;;9.23;6.32;;;12.60;99.90;;;;;;4960408;28;20141;-67
2023/03/18 00:43:48;;;;;;;9.73;6.95;;;12.50;99.90;;;;;;4963033;28;20047;-67
2023/03/18 00:46:26;;;;;;;13.07;7.50;;;12.50;99.90;;;;;;4976333;28;20047;-67
2023/03/18 00:48:54;;;;;;;10.77;7.22;;;12.50;99.90;;;;;;4966900;28;20050;-67
2023/03/18 00:51:21;;;;;;;11.80;7.63;;;12.30;99.90;;;;;;4965066;28;20187;-67
2023/03/18 00:53:51;;;;;;;14.38;8.50;;;12.30;99.90;;;;;;4965411;28;20399;-67
2023/03/18 00:56:20;;;;;;;15.27;7.63;;;12.20;99.90;;;;;;4951660;28;20521;-67
2023/03/18 00:58:47;;;;;;;11.27;8.15;;;12.10;99.90;;;;;;4947314;28;20138;-68
2023/03/18 01:01:14;;;;;;;9.48;7.82;;;12.00;99.90;;;;;;4964409;28;20051;-67
2023/03/18 01:03:41;;;;;;;11.02;8.27;;;12.00;99.90;;;;;;4959094;28;20078;-67
2023/03/18 01:06:10;;;;;;;12.50;8.20;;;11.90;99.90;;;;;;4964047;28;20446;-68
2023/03/18 01:08:36;;;;;;;11.95;8.45;;;11.80;99.90;;;;;;4969113;28;20061;-67
2023/03/18 01:11:02;;;;;;;15.48;8.45;;;11.70;99.90;;;;;;4969815;28;20031;-68
2023/03/18 01:13:28;;;;;;;12.18;8.57;;;11.60;99.90;;;;;;4964086;28;20163;-68
2023/03/18 01:15:55;;;;;;;17.30;9.52;;;11.50;99.90;;;;;;4964263;28;20551;-68
2023/03/18 01:18:22;;;;;;;11.50;8.93;;;11.40;99.90;;;;;;4961302;28;20042;-68
2023/03/18 01:20:48;;;;;;;12.32;9.73;;;11.40;99.90;;;;;;4961799;28;20062;-68
2023/03/18 01:23:15;;;;;;;13.60;9.98;;;11.30;99.90;;;;;;4960813;28;20051;-67
2023/03/18 01:25:42;;;;;;;16.50;10.50;;;11.20;99.90;;;;;;4967280;28;20078;-68
2023/03/18 01:28:07;;;;;;;15.48;11.18;;;11.20;99.90;;;;;;4964413;28;20063;-69
2023/03/18 01:30:34;;;;;;;16.48;11.80;;;11.10;99.90;;;;;;4967738;28;20098;-68
2023/03/18 01:33:03;;;;;;;17.48;11.88;;;11.10;99.90;;;;;;4968254;28;20045;-67
2023/03/18 01:35:33;;;;;;;14.48;11.77;;;11.00;99.90;;;;;;4963247;28;20053;-67
2023/03/18 01:37:59;;;;;;;14.80;12.15;;;11.00;99.90;;;;;;4947336;28;20048;-69
2023/03/18 01:40:27;;;;;;;16.80;12.35;;;11.00;99.90;;;;;;4946817;28;20050;-67
2023/03/18 01:43:00;;;;;;;16.23;12.77;;;11.00;99.90;;;;;;4961946;28;20455;-68
2023/03/18 01:45:28;;;;;;;16.02;12.55;;;10.90;99.90;;;;;;4952119;28;20053;-68
2023/03/18 01:47:56;;;;;;;15.82;12.75;;;10.90;99.90;;;;;;4960169;28;20483;-67
2023/03/18 01:50:27;;;;;;;19.13;13.82;;;10.90;99.90;;;;;;4958625;28;20363;-67
2023/03/18 01:53:02;;;;;;;17.08;13.25;;;10.90;99.90;;;;;;4957225;28;20058;-68
2023/03/18 01:55:30;;;;;;;16.83;12.60;;;10.80;99.90;;;;;;4961725;28;20142;-68
2023/03/18 01:57:57;;;;;;;16.58;13.70;;;10.80;99.90;;;;;;4962987;28;20058;-68
2023/03/18 02:00:23;;;;;;;17.40;13.38;;;10.80;99.90;;;;;;4961777;28;20137;-68
2023/03/18 02:02:52;;;;;;;15.57;12.93;;;10.70;99.90;;;;;;4949094;28;20075;-68
2023/03/18 02:05:23;;;;;;;17.50;13.80;;;10.70;99.90;;;;;;4962036;28;20458;-69
2023/03/18 02:07:50;;;;;;;18.45;14.73;;;10.60;99.90;;;;;;4960853;28;20094;-68
2023/03/18 02:10:29;;;;;;;21.98;14.55;;;10.60;99.90;;;;;;4959084;28;20516;-68
2023/03/18 02:13:00;;;;;;;20.08;14.73;;;10.60;99.90;;;;;;4959738;28;20039;-67
2023/03/18 02:15:27;;;;;;;17.67;13.57;;;10.60;99.90;;;;;;4960213;28;20717;-68
2023/03/18 02:18:05;;;;;;;20.08;14.15;;;10.50;99.90;;;;;;4958247;28;20126;-67
2023/03/18 02:20:33;;;;;;;19.83;14.45;;;10.50;99.90;;;;;;4978381;28;20451;-68
2023/03/18 02:23:21;;;;;;;18.98;14.75;;;10.50;99.90;;;;;;4962934;28;20046;-68
2023/03/18 02:25:58;;;;;;;18.95;15.85;;;10.40;99.90;;;;;;4943481;28;20138;-68
2023/03/18 02:28:27;;;;;;;20.63;15.25;;;10.40;99.90;;;;;;4960171;28;20511;-68
2023/03/18 02:30:57;;;;;;;21.70;16.63;;;10.40;99.90;;;;;;4964503;28;20196;-68
2023/03/18 02:33:28;;;;;;;21.83;16.45;;;10.40;99.90;;;;;;4962233;28;20081;-67
2023/03/18 02:35:59;;;;;;;21.92;16.23;;;10.40;99.90;;;;;;4956752;28;20047;-67
2023/03/18 02:38:25;;;;;;;25.50;16.35;;;10.40;99.90;;;;;;4960684;28;20548;-68
2023/03/18 02:40:52;;;;;;;21.85;17.45;;;10.30;99.90;;;;;;4957992;28;20043;-67
2023/03/18 02:43:26;;;;;;;22.15;16.80;;;10.40;99.90;;;;;;4961324;28;20047;-68
2023/03/18 02:46:24;;;;;;;20.65;17.27;;;10.40;99.90;;;;;;4958212;28;20105;-68
2023/03/18 02:48:51;;;;;;;22.17;16.90;;;10.30;99.90;;;;;;4960802;28;20053;-68
2023/03/18 02:51:17;;;;;;;21.23;16.83;;;10.30;99.90;;;;;;4959294;28;20070;-67
2023/03/18 02:53:43;;;;;;;23.08;17.30;;;10.40;99.90;;;;;;4961737;28;20062;-67
2023/03/18 02:56:10;;;;;;;23.55;19.05;;;10.40;99.90;;;;;;4957174;28;20058;-68
2023/03/18 02:58:36;;;;;;;21.60;17.70;;;10.40;99.90;;;;;;4957929;28;20039;-67
2023/03/18 03:01:05;;;;;;;23.42;18.20;;;10.40;99.90;;;;;;4961158;28;20089;-68
2023/03/18 03:03:31;;;;;;;21.58;18.00;;;10.40;99.90;;;;;;4949905;28;20057;-68
2023/03/18 03:05:57;;;;;;;23.20;17.35;;;10.40;99.90;;;;;;4955407;28;20042;-68
2023/03/18 03:08:23;;;;;;;20.85;18.30;;;10.40;99.90;;;;;;4960761;28;20043;-67
2023/03/18 03:10:51;;;;;;;27.00;19.17;;;10.40;99.90;;;;;;4959103;28;20141;-68
2023/03/18 03:13:17;;;;;;;25.38;17.92;;;10.40;99.90;;;;;;4964278;28;20043;-67
2023/03/18 03:15:43;;;;;;;25.55;19.23;;;10.40;99.90;;;;;;4956580;28;20349;-67
2023/03/18 03:18:09;;;;;;;23.35;19.27;;;10.30;99.90;;;;;;4957189;28;20046;-68
2023/03/18 03:20:36;;;;;;;27.38;18.88;;;10.30;99.90;;;;;;4965976;28;20047;-68
2023/03/18 03:23:08;;;;;;;24.02;19.65;;;10.30;99.90;;;;;;4962644;28;20161;-67
2023/03/18 03:25:35;;;;;;;24.63;19.55;;;10.20;99.90;;;;;;4955175;28;20078;-68
2023/03/18 03:28:02;;;;;;;23.63;20.15;;;10.20;99.90;;;;;;4956851;28;20054;-68
2023/03/18 03:30:29;;;;;;;24.08;19.65;;;10.20;99.90;;;;;;4962750;28;20402;-67
2023/03/18 03:32:55;;;;;;;23.35;19.98;;;10.20;99.90;;;;;;4955629;28;20067;-68
2023/03/18 03:35:22;;;;;;;24.45;19.27;;;10.10;99.90;;;;;;4947942;28;20065;-68
2023/03/18 03:37:48;;;;;;;26.25;19.67;;;10.10;99.90;;;;;;4956912;28;20082;-68
2023/03/18 03:40:16;;;;;;;26.10;19.52;;;10.10;99.90;;;;;;4961880;28;20406;-68
2023/03/18 03:42:43;;;;;;;25.48;18.63;;;10.10;99.90;;;;;;4956902;28;20050;-68
2023/03/18 03:45:10;;;;;;;25.38;19.05;;;10.00;99.90;;;;;;4957732;28;20043;-68
2023/03/18 03:47:36;;;;;;;21.80;17.95;;;10.00;99.90;;;;;;4960401;28;20039;-67
2023/03/18 03:50:02;;;;;;;24.25;19.00;;;10.00;99.90;;;;;;4962039;28;20133;-68
2023/03/18 03:52:28;;;;;;;26.08;18.73;;;10.00;99.90;;;;;;4965108;28;20039;-68
2023/03/18 03:54:55;;;;;;;27.20;20.35;;;9.90;99.90;;;;;;4946141;28;20050;-68
2023/03/18 03:57:25;;;;;;;22.95;19.23;;;9.90;99.90;;;;;;4958631;28;20411;-68
2023/03/18 03:59:50;;;;;;;22.63;18.30;;;9.90;99.90;;;;;;4964278;28;20196;-67
2023/03/18 04:02:18;;;;;;;22.25;18.67;;;9.80;99.90;;;;;;4958832;28;20542;-67
2023/03/18 04:04:45;;;;;;;21.65;18.30;;;9.80;99.90;;;;;;4966368;28;20133;-68
2023/03/18 04:07:11;;;;;;;21.30;19.02;;;9.80;99.90;;;;;;4956277;28;20055;-67
2023/03/18 04:09:38;;;;;;;21.98;18.67;;;9.80;99.90;;;;;;4959904;28;20035;-67
2023/03/18 04:12:04;;;;;;;24.65;19.63;;;9.80;99.90;;;;;;4958391;28;20539;-67
2023/03/18 04:14:30;;;;;;;21.45;18.75;;;9.80;99.90;;;;;;4954970;28;20109;-67
2023/03/18 04:16:57;;;;;;;21.42;18.33;;;9.80;99.90;;;;;;4963959;28;20086;-67
2023/03/18 04:19:24;;;;;;;26.20;19.50;;;9.80;99.90;;;;;;4960365;28;20047;-67
2023/03/18 04:21:50;;;;;;;26.33;20.23;;;9.80;99.90;;;;;;4957542;28;20421;-67
2023/03/18 04:24:16;;;;;;;23.85;19.55;;;9.70;99.90;;;;;;4960362;28;20048;-67
2023/03/18 04:26:42;;;;;;;26.23;20.02;;;9.80;99.90;;;;;;4945086;28;20066;-67
2023/03/18 04:29:08;;;;;;;22.80;19.27;;;9.70;99.90;;;;;;4960835;28;20054;-67
2023/03/18 04:31:34;;;;;;;23.27;20.35;;;9.70;99.90;;;;;;4961748;28;20396;-67
2023/03/18 04:34:00;;;;;;;21.23;18.83;;;9.70;99.90;;;;;;4953074;28;20039;-67
2023/03/18 04:36:27;;;;;;;23.42;19.23;;;9.60;99.90;;;;;;4963845;28;20097;-67
2023/03/18 04:38:53;;;;;;;23.73;19.13;;;9.60;99.90;;;;;;4961777;28;20046;-67
2023/03/18 04:41:19;;;;;;;24.42;20.15;;;9.60;99.90;;;;;;4960806;28;20043;-67
2023/03/18 04:43:45;;;;;;;23.92;20.35;;;9.60;99.90;;;;;;4962434;28;20403;-67
2023/03/18 04:46:11;;;;;;;25.70;20.85;;;9.60;99.90;;;;;;4961582;28;20070;-68
2023/03/18 04:48:38;;;;;;;24.90;21.23;;;9.60;99.90;;;;;;4959934;28;20098;-68
2023/03/18 04:51:07;;;;;;;25.05;20.80;;;9.60;99.90;;;;;;4949749;28;20043;-68
2023/03/18 04:53:33;;;;;;;22.73;20.33;;;9.60;99.90;;;;;;4964397;28;20043;-68
2023/03/18 04:55:59;;;;;;;24.70;21.15;;;9.60;99.90;;;;;;4961831;28;20149;-68
2023/03/18 04:58:25;;;;;;;23.85;21.38;;;9.60;99.90;;;;;;4962456;28;20582;-68
2023/03/18 05:00:52;;;;;;;26.85;21.95;;;9.60;99.90;;;;;;4962583;28;20035;-69
2023/03/18 05:03:18;;;;;;;26.13;21.45;;;9.60;99.90;;;;;;4952095;28;20406;-69
2023/03/18 05:05:44;;;;;;;26.02;20.50;;;9.60;99.90;;;;;;4962615;28;20039;-68
2023/03/18 05:08:09;;;;;;;23.42;19.75;;;9.60;99.90;;;;;;4964308;28;20100;-68
2023/03/18 05:10:36;;;;;;;23.83;21.23;;;9.60;99.90;;;;;;4960391;28;20043;-68
2023/03/18 05:13:02;;;;;;;23.88;21.35;;;9.60;99.90;;;;;;4950348;28;20320;-68
2023/03/18 05:15:28;;;;;;;25.88;20.75;;;9.60;99.90;;;;;;4962165;28;20039;-68
2023/03/18 05:17:54;;;;;;;24.45;21.52;;;9.60;99.90;;;;;;4959824;28;20344;-68
2023/03/18 05:20:20;;;;;;;27.60;23.13;;;9.60;99.90;;;;;;4959556;28;20046;-68
2023/03/18 05:22:46;;;;;;;27.58;23.13;;;9.60;99.90;;;;;;4962927;28;20457;-67
2023/03/18 05:25:11;;;;;;;28.40;22.23;;;9.60;99.90;;;;;;4963857;28;20035;-68
2023/03/18 05:27:37;;;;;;;28.48;21.80;;;9.60;99.90;;;;;;4964553;28;20074;-68
2023/03/18 05:30:04;;;;;;;26.05;22.17;;;9.60;99.90;;;;;;4962691;28;20051;-68
2023/03/18 05:32:31;;;;;;;25.02;21.80;;;9.70;99.90;;;;;;4961645;28;20047;-67
2023/03/18 05:34:57;;;;;;;27.83;21.77;;;9.70;99.90;;;;;;4962684;28;20043;-68
2023/03/18 05:37:23;;;;;;;26.60;23.63;;;9.70;99.90;;;;;;4959517;28;20035;-68
2023/03/18 05:39:49;;;;;;;26.15;22.65;;;9.70;99.90;;;;;;4957846;28;20039;-68
2023/03/18 05:42:15;;;;;;;25.45;22.35;;;9.70;99.90;;;;;;4960954;28;20034;-68
2023/03/18 05:44:41;;;;;;;26.38;21.65;;;9.80;99.90;;;;;;4964864;28;20496;-67
2023/03/18 05:47:08;;;;;;;28.60;22.77;;;9.80;99.90;;;;;;4956649;28;20039;-68
2023/03/18 05:49:34;;;;;;;27.45;21.50;;;9.80;99.90;;;;;;4962369;28;20121;-67
2023/03/18 05:52:00;;;;;;;24.98;22.35;;;9.80;99.90;;;;;;4964503;28;20035;-67
2023/03/18 05:54:25;;;;;;;26.17;20.70;;;9.80;99.90;;;;;;4965777;28;20117;-67
2023/03/18 05:56:51;;;;;;;23.42;20.88;;;9.80;99.90;;;;;;4965625;28;20047;-68
2023/03/18 05:59:18;;;;;;;25.75;22.90;;;9.80;99.90;;;;;;4959059;28;20105;-67
2023/03/18 06:01:44;;;;;;;25.35;21.15;;;9.80;99.90;;;;;;4945131;28;20133;-68
2023/03/18 06:04:10;;;;;;;22.83;20.48;;;9.80;99.90;;;;;;4965164;28;20126;-68
2023/03/18 06:06:39;;;;;;;23.35;20.60;;;9.80;99.90;;;;;;4954694;28;20039;-68
2023/03/18 06:09:09;;;;;;;22.13;19.52;;;9.80;99.90;;;;;;4956807;28;20039;-68
2023/03/18 06:11:35;;;;;;;27.17;20.55;;;9.80;99.90;;;;;;4961954;28;20081;-68
2023/03/18 06:14:03;;;;;;;23.65;20.15;;;9.80;99.90;;;;;;4966900;28;20046;-68
2023/03/18 06:16:30;;;;;;;22.45;19.60;;;9.80;99.90;;;;;;4959263;28;20190;-67
2023/03/18 06:18:56;;;;;;;21.77;19.48;;;9.80;99.90;;;;;;4959978;28;20043;-67
2023/03/18 06:21:23;;;;;;;20.73;18.50;;;9.80;99.90;;;;;;4944212;28;20039;-68
2023/03/18 06:23:49;;;;;;;20.95;18.23;;;9.80;99.90;;;;;;4958319;28;20105;-69
2023/03/18 06:26:16;;;;;;;21.25;17.27;;;9.80;99.90;;;;;;4963510;28;20054;-68
2023/03/18 06:28:41;;;;;;;20.48;17.55;;;9.80;99.90;;;;;;4964553;28;20111;-68
2023/03/18 06:31:09;;;;;;;22.88;18.33;;;9.80;99.90;;;;;;4966236;28;20148;-68
2023/03/18 06:33:35;;;;;;;23.25;18.25;;;9.80;99.90;;;;;;4965740;28;20039;-67
2023/03/18 06:36:01;;;;;;;29.92;24.58;;;9.70;99.90;;;;;;4946048;28;20054;-68
2023/03/18 06:38:27;;;;;;;24.38;19.95;;;9.70;99.90;;;;;;4958606;28;20133;-68
2023/03/18 06:40:54;;;;;;;23.38;19.08;;;9.80;99.90;;;;;;4962724;28;20038;-69
2023/03/18 06:43:20;;;;;;;20.50;17.15;;;9.80;99.90;;;;;;4961098;28;20046;-68
2023/03/18 06:45:47;;;;;;;20.25;17.55;;;9.80;99.90;;;;;;4973863;28;20039;-68
2023/03/18 06:48:13;;;;;;;25.38;18.63;;;9.80;99.90;;;;;;4963951;28;20038;-67
2023/03/18 06:50:40;;;;;;;18.73;16.52;;;9.90;99.90;;;;;;4963015;28;20038;-69
2023/03/18 06:53:07;;;;;;;21.77;16.80;;;9.90;99.90;;;;;;4959521;28;20145;-69
2023/03/18 06:55:33;;;;;;;25.33;16.98;;;9.90;99.90;;;;;;4957837;28;20620;-68
2023/03/18 06:57:59;;;;;;;21.48;17.27;;;10.00;99.90;;;;;;4961468;28;20050;-68
2023/03/18 07:00:25;;;;;;;22.90;17.70;;;10.10;99.90;;;;;;4960493;28;20039;-68
2023/03/18 07:02:51;;;;;;;20.20;16.88;;;10.20;99.90;;;;;;4958749;28;20031;-68
2023/03/18 07:05:18;;;;;;;21.88;18.10;;;10.30;99.90;;;;;;4959849;28;20078;-67
2023/03/18 07:07:47;;;;;;;21.52;16.88;;;10.30;99.90;;;;;;4960584;28;20042;-69
2023/03/18 07:10:24;;;;;;;21.27;17.65;;;10.50;99.90;;;;;;4946321;28;20042;-68
2023/03/18 07:12:51;;;;;;;21.50;16.70;;;10.50;99.90;;;;;;4956301;28;20047;-68
2023/03/18 07:15:20;;;;;;;20.20;16.80;;;10.50;99.90;;;;;;4949837;28;20406;-68
2023/03/18 07:17:46;;;;;;;20.30;17.02;;;10.60;99.90;;;;;;4966614;28;20047;-68
2023/03/18 07:20:13;;;;;;;21.48;15.70;;;10.60;99.90;;;;;;4959544;28;20114;-68
2023/03/18 07:22:38;;;;;;;20.38;15.30;;;10.60;99.90;;;;;;4962145;28;20042;-68
2023/03/18 07:25:04;;;;;;;19.23;15.68;;;10.60;99.90;;;;;;4952438;28;20043;-68
2023/03/18 07:27:30;;;;;;;19.17;17.17;;;10.60;99.90;;;;;;4968043;28;20047;-67
2023/03/18 07:29:56;;;;;;;22.65;15.95;;;10.70;99.90;;;;;;4961851;28;20117;-68
2023/03/18 07:32:22;;;;;;;22.80;16.77;;;10.70;99.90;;;;;;4960523;28;20442;-67
2023/03/18 07:34:48;;;;;;;23.80;17.40;;;10.60;99.90;;;;;;4963661;28;20114;-68
2023/03/18 07:37:14;;;;;;;21.13;16.58;;;10.60;99.90;;;;;;4963470;28;20039;-67
2023/03/18 07:39:42;;;;;;;19.75;17.60;;;10.60;99.90;;;;;;4965909;28;20477;-68
2023/03/18 07:42:09;;;;;;;23.40;16.90;;;10.60;99.90;;;;;;4961258;28;20046;-68
2023/03/18 07:44:36;;;;;;;19.60;16.65;;;10.60;99.90;;;;;;4965455;28;20121;-67
2023/03/18 07:47:02;;;;;;;21.73;17.38;;;10.60;99.90;;;;;;4962389;28;20485;-67
2023/03/18 07:49:29;;;;;;;24.17;19.08;;;10.50;99.90;;;;;;4965132;28;20122;-67
2023/03/18 07:51:55;;;;;;;21.63;17.73;;;10.50;99.90;;;;;;4965926;28;20043;-67
2023/03/18 07:54:22;;;;;;;24.02;18.98;;;10.50;99.90;;;;;;4963310;28;20150;-67
2023/03/18 07:56:49;;;;;;;26.17;19.63;;;10.50;99.90;;;;;;4959992;28;20043;-67
2023/03/18 07:59:15;;;;;;;26.40;18.83;;;10.50;99.90;;;;;;4964882;28;20134;-67
2023/03/18 08:01:41;;;;;;;23.73;19.50;;;10.50;99.90;;;;;;4961639;28;20121;-66
2023/03/18 08:04:07;;;;;;;25.17;19.23;;;10.50;99.90;;;;;;4967528;28;20096;-67
2023/03/18 08:06:33;;;;;;;25.95;19.98;;;10.50;99.90;;;;;;4968719;28;20038;-67
2023/03/18 08:08:59;;;;;;;25.52;20.92;;;10.60;99.90;;;;;;4947991;28;20042;-66
2023/03/18 08:11:25;;;;;;;27.58;21.50;;;10.70;99.90;;;;;;4967165;28;20383;-67
2023/03/18 08:13:51;;;;;;;27.25;22.05;;;10.80;99.90;;;;;;4948472;28;20051;-67
2023/03/18 08:16:17;;;;;;;30.55;21.98;;;10.90;99.90;;;;;;4970274;28;20192;-67
2023/03/18 08:18:44;;;;;;;28.48;22.80;;;10.90;99.90;;;;;;4965749;28;20039;-66
2023/03/18 08:21:10;;;;;;;27.70;22.77;;;11.00;99.90;;;;;;4943942;28;20410;-67
2023/03/18 08:23:36;;;;;;;30.52;23.73;;;11.10;99.90;;;;;;4964063;28;20039;-69
2023/03/18 08:26:03;;;;;;;26.27;23.48;;;11.20;99.90;;;;;;4970007;28;20133;-67
2023/03/18 08:28:29;;;;;;;29.17;22.83;;;11.30;99.90;;;;;;4954704;28;20152;-67
2023/03/18 08:30:58;;;;;;;28.38;23.85;;;11.40;99.90;;;;;;4965739;28;20090;-67
2023/03/18 08:33:25;;;;;;;27.17;24.08;;;11.40;99.90;;;;;;4970089;28;20062;-68
2023/03/18 08:35:52;;;;;;;29.60;24.27;;;11.50;99.90;;;;;;4967354;28;20035;-67
2023/03/18 08:38:18;;;;;;;27.55;23.67;;;11.50;99.90;;;;;;4963613;28;20043;-67
2023/03/18 08:40:47;;;;;;;31.13;24.10;;;11.60;99.90;;;;;;4957435;28;20053;-68
2023/03/18 08:43:13;;;;;;;27.45;24.52;;;11.60;99.90;;;;;;4961165;28;20065;-67
2023/03/18 08:45:39;;;;;;;27.73;22.95;;;11.70;99.90;;;;;;4965772;28;20491;-68
2023/03/18 08:48:06;;;;;;;24.67;22.02;;;11.70;99.90;;;;;;4953177;28;20714;-67
2023/03/18 08:50:33;;;;;;;28.85;21.70;;;11.80;99.90;;;;;;4959208;28;20043;-67
2023/03/18 08:52:59;;;;;;;27.73;21.23;;;11.90;99.90;;;;;;4973926;28;20120;-68
2023/03/18 08:55:38;;;;;;;24.70;20.80;;;12.00;99.90;;;;;;4964609;28;20498;-68
2023/03/18 08:58:05;;;;;;;23.02;20.63;;;12.10;99.90;;;;;;4967476;28;20051;-68
2023/03/18 09:00:36;;;;;;;25.00;20.58;;;12.20;99.90;;;;;;4960476;28;20435;-68
2023/03/18 09:03:05;;;;;;;23.65;20.25;;;12.40;99.90;;;;;;4959399;28;20496;-68
2023/03/18 09:05:31;;;;;;;23.52;18.50;;;12.80;99.90;;;;;;4961508;28;20051;-68
2023/03/18 09:08:00;;;;;;;20.77;18.58;;;13.50;99.90;;;;;;4960630;28;20711;-67
2023/03/18 09:10:26;;;;;;;22.85;18.27;;;14.00;99.90;;;;;;4961872;28;20462;-68
2023/03/18 09:12:52;;;;;;;19.83;17.70;;;14.60;99.90;;;;;;4948126;28;20053;-68
2023/03/18 09:15:21;;;;;;;19.90;17.90;;;15.40;99.90;;;;;;4944631;28;20043;-68
2023/03/18 09:17:47;;;;;;;20.30;17.10;;;15.90;99.90;;;;;;4954908;28;20092;-67
2023/03/18 09:20:16;;;;;;;17.80;16.02;;;16.70;99.90;;;;;;4960123;28;20043;-69
2023/03/18 09:22:45;;;;;;;18.98;16.83;;;17.70;99.90;;;;;;4963272;28;20128;-68
2023/03/18 09:25:12;;;;;;;16.80;14.80;;;18.70;99.90;;;;;;4968459;28;20075;-69
2023/03/18 09:27:38;;;;;;;18.52;16.15;;;19.50;99.90;;;;;;4970056;28;20053;-69
2023/03/18 09:30:04;;;;;;;18.70;16.73;;;20.00;99.90;;;;;;4967624;28;20055;-69
2023/03/18 09:32:30;;;;;;;19.60;15.82;;;20.10;99.90;;;;;;4965697;28;20051;-68
2023/03/18 09:34:56;;;;;;;19.00;15.02;;;20.30;99.90;;;;;;4944493;28;20384;-68
2023/03/18 09:37:22;;;;;;;16.48;14.88;;;20.30;99.90;;;;;;4968537;28;20039;-68
2023/03/18 09:39:49;;;;;;;16.85;15.05;;;19.40;99.90;;;;;;4966774;28;20061;-68
2023/03/18 09:42:35;;;;;;;18.75;16.70;;;18.50;99.90;;;;;;4962855;28;20362;-68
2023/03/18 09:45:09;;;;;;;19.48;17.35;;;17.60;99.90;;;;;;4956932;28;20394;-68
2023/03/18 09:48:09;;;;;;;21.23;19.02;;;16.80;99.90;;;;;;4948618;28;20509;-69
2023/03/18 09:50:57;;;;;;;24.05;19.88;;;16.30;99.90;;;;;;4977646;28;20192;-69
2023/03/18 09:53:54;;;;;;;23.05;20.63;;;15.80;99.90;;;;;;4934597;28;20046;-69
2023/03/18 09:56:33;;;;;;;23.92;21.40;;;15.50;99.90;;;;;;4956987;28;20170;-68
2023/03/18 09:59:10;;;;;;;25.45;21.48;;;15.30;99.90;;;;;;4955479;28;20042;-68
2023/03/18 10:01:37;;;;;;;27.27;21.58;;;15.10;99.90;;;;;;4960218;28;20051;-68
2023/03/18 10:04:30;;;;;;;25.90;23.23;;;14.90;99.90;;;;;;4957032;28;20071;-69
2023/03/18 10:07:10;;;;;;;23.77;21.30;;;14.70;99.90;;;;;;4958944;28;20207;-68
2023/03/18 10:09:45;;;;;;;23.58;21.08;;;14.60;99.90;;;;;;4950179;28;20410;-68
2023/03/18 10:12:17;;;;;;;;;;;14.40;99.90;;;;;;4966139;28;20050;-68
2023/03/18 10:14:48;;;;;;;21.52;19.30;;;14.30;99.90;;;;;;4963078;28;20087;-68
2023/03/18 10:17:29;;;;;;;23.15;20.75;;;14.20;99.90;;;;;;4964095;28;20624;-68
2023/03/18 10:20:02;;;;;;;24.83;19.88;;;14.20;99.90;;;;;;4967866;28;20046;-67
2023/03/18 10:23:01;;;;;;;24.52;20.05;;;14.20;99.90;;;;;;4963141;28;20035;-68
2023/03/18 10:25:45;;;;;;;22.90;20.27;;;14.10;99.90;;;;;;4965873;28;20046;-68
2023/03/18 10:28:49;;;;;;;21.58;19.35;;;14.30;99.90;;;;;;4947467;28;20054;-68
2023/03/18 10:31:42;;;;;;;23.48;19.92;;;14.60;99.90;;;;;;4957916;28;20376;-68
2023/03/18 10:34:16;;;;;;;22.75;19.23;;;15.10;99.90;;;;;;4960155;28;20070;-68
2023/03/18 10:37:02;;;;;;;20.85;18.70;;;15.50;99.90;;;;;;4960064;28;20430;-66
2023/03/18 10:39:29;;;;;;;20.45;18.45;;;15.90;99.90;;;;;;4970801;28;20114;-66
2023/03/18 10:41:59;;;;;;;17.17;15.48;;;16.30;99.90;;;;;;4966527;28;20060;-67
2023/03/18 10:44:29;;;;;;;14.32;12.82;;;17.10;99.90;;;;;;4959100;28;20083;-67
2023/03/18 10:47:18;;;;;;;13.93;12.60;;;18.10;99.90;;;;;;4961050;28;20043;-68
2023/03/18 10:49:53;;;;;;;12.77;11.57;;;19.10;99.90;;;;;;4958345;28;20043;-67
2023/03/18 10:52:39;;;;;;;13.43;12.02;;;20.10;99.90;;;;;;4968340;28;20074;-65
2023/03/18 10:55:17;;;;;;;14.02;12.57;;;20.70;99.90;;;;;;4964181;28;20491;-65
2023/03/18 10:57:43;;;;;;;11.73;10.63;;;21.00;99.90;;;;;;4967342;28;20042;-65
2023/03/18 11:00:31;;;;;;;10.63;9.65;;;20.80;99.90;;;;;;4961640;28;20069;-66
2023/03/18 11:02:57;;;;;;;9.93;9.02;;;20.60;99.90;;;;;;4955424;28;20054;-66
2023/03/18 11:05:33;;;;;;;9.98;8.98;;;20.00;99.90;;;;;;4962400;28;20054;-65
2023/03/18 11:08:05;;;;;;;12.00;9.18;;;19.30;99.90;;;;;;4961042;28;20557;-66
2023/03/18 11:10:44;;;;;;;10.45;9.40;;;18.60;99.90;;;;;;4947508;28;20043;-67
2023/03/18 11:13:16;;;;;;;10.30;9.30;;;18.00;99.90;;;;;;4959977;28;20049;-65
2023/03/18 11:15:51;;;;;;;11.07;8.63;;;17.50;99.90;;;;;;4961420;28;20046;-65
2023/03/18 11:18:24;;;;;;;10.20;9.10;;;17.50;99.90;;;;;;4966080;28;20270;-65
2023/03/18 11:20:59;;;;;;;9.38;8.45;;;17.40;99.90;;;;;;4954116;28;20077;-65
2023/03/18 11:23:55;;;;;;;9.88;8.43;;;17.50;99.90;;;;;;4964914;28;20039;-66
2023/03/18 11:26:21;;;;;;;9.45;8.55;;;17.40;99.90;;;;;;4962232;28;20613;-66
2023/03/18 11:28:47;;;;;;;11.13;8.75;;;17.10;99.90;;;;;;4956268;28;20777;-66
2023/03/18 11:31:17;;;;;;;8.40;7.63;;;17.30;99.90;;;;;;4954926;28;20138;-66
2023/03/18 11:33:43;;;;;;;10.18;7.88;;;17.50;99.90;;;;;;4968577;28;20439;-67
2023/03/18 11:36:15;;;;;;;8.73;7.72;;;17.40;99.90;;;;;;4952356;28;20090;-67
2023/03/18 11:38:42;;;;;;;9.50;7.80;;;17.60;99.90;;;;;;4969480;28;20387;-66
2023/03/18 11:41:15;;;;;;;7.75;6.63;;;18.30;99.90;;;;;;4966572;28;20050;-68
2023/03/18 11:44:04;;;;;;;7.82;6.78;;;19.40;99.90;;;;;;4970702;28;20097;-68
2023/03/18 11:46:41;;;;;;;6.82;5.53;;;20.40;99.90;;;;;;4963986;28;20061;-67
2023/03/18 11:49:17;;;;;;;6.05;5.45;;;20.80;99.90;;;;;;4962954;28;20494;-68
2023/03/18 11:51:49;;;;;;;6.65;5.40;;;21.50;99.90;;;;;;4958353;28;20047;-66
2023/03/18 11:54:47;;;;;;;6.38;5.78;;;22.10;99.90;;;;;;4964221;28;20035;-67
2023/03/18 11:57:31;;;;;;;6.65;4.82;;;22.40;99.90;;;;;;4959948;28;20135;-66
2023/03/18 12:00:03;;;;;;;6.38;5.10;;;22.70;99.90;;;;;;4960073;28;20151;-66
2023/03/18 12:02:51;;;;;;;5.43;4.55;;;23.00;99.90;;;;;;4960416;28;20383;-66
2023/03/18 12:05:29;;;;;;;6.03;4.68;;;23.50;99.90;;;;;;4963816;28;20043;-66
2023/03/18 12:08:08;;;;;;;6.47;4.50;;;23.70;99.80;;;;;;4959382;28;20053;-66
2023/03/18 12:10:40;;;;;;;5.60;5.00;;;23.90;98.90;;;;;;4967228;28;20435;-66
2023/03/18 12:13:18;;;;;;;5.50;4.95;;;23.90;97.90;;;;;;4962799;28;20070;-65
2023/03/18 12:16:00;;;;;;;7.70;5.28;;;23.30;97.40;;;;;;4962378;28;20047;-65
2023/03/18 12:18:50;;;;;;;6.90;5.68;;;22.40;97.50;;;;;;4960100;28;20039;-65
2023/03/18 12:21:44;;;;;;;7.00;6.30;;;22.30;98.80;;;;;;4975278;28;20056;-64
2023/03/18 12:24:42;;;;;;;6.10;5.50;;;22.40;98.00;;;;;;4969153;28;20051;-64
2023/03/18 12:27:24;;;;;;;6.70;5.10;;;22.10;98.30;;;;;;4977649;28;21085;-67
2023/03/18 12:30:28;;;;;;;5.38;4.45;;;22.30;98.80;;;;;;4962587;28;20043;-69
2023/03/18 12:33:09;;;;;;;5.20;4.70;;;22.80;97.00;;;;;;4961940;28;20055;-69
2023/03/18 12:35:55;;;;;;;5.97;4.95;;;22.70;97.50;;;;;;4967525;28;20532;-69
2023/03/18 12:38:42;;;;;;;6.60;5.82;;;22.40;96.90;;;;;;4959952;28;20039;-69
2023/03/18 12:41:32;;;;;;;6.25;5.10;;;21.90;97.50;;;;;;4958314;28;20053;-70
2023/03/18 12:44:18;;;;;;;5.30;4.55;;;22.00;97.00;;;;;;4966311;28;20499;-70
2023/03/18 12:47:05;;;;;;;5.57;4.93;;;21.60;97.50;;;;;;4954169;28;20058;-70
2023/03/18 12:49:37;;;;;;;6.18;5.38;;;20.70;97.70;;;;;;4962519;28;20364;-70